Search for airport 
image banner adimage banner adimage banner ad
image banner ad

43CN - Corcoran

Located in Corcoran, United States

ICAO - 43CN, IATA -

Data provided by Airmate  

General information

Coordinates: N36°6'10" W119°35'41"
Elevation is 197 feet MSL.
Magnetic variation is 15° East
View others Airports in California

Operational data

Special qualification required
Current time UTC:
Current local time:
Weather at : KHJO - Hanford Muni ( 24 km )
METAR: KHJO 210953Z AUTO 33005KT 10SM CLR 24/13 A2980 RMK AO2 SLP088 T02390133 $
View NOTAMs / SUP AIP / TFR affecting this airport [VIEW]
Communications frequencies: [VIEW]

Runways:

RWY identifierQFULength (ft)Width (ft)SurfaceLDA (ft)
13380050ASPH
31380050ASPH

Airport contact information

Address: Corcoran United States

Satellite view of 43CN